createdAt,value
2022-10-22T00:00:38.832Z,5.38
2022-10-22T00:03:09.531Z,4.60
2022-10-22T00:05:38.684Z,5.07
2022-10-22T00:08:09.290Z,4.85
2022-10-22T00:10:40.331Z,4.68
2022-10-22T00:13:11.829Z,4.60
2022-10-22T00:15:42.142Z,4.25
2022-10-22T00:18:12.576Z,5.07
2022-10-22T00:20:41.394Z,4.88
2022-10-22T00:23:10.191Z,4.60
2022-10-22T00:25:39.079Z,4.90
2022-10-22T00:28:08.904Z,4.55
2022-10-22T00:30:38.005Z,4.40
2022-10-22T00:33:06.532Z,4.78
2022-10-22T00:35:37.410Z,4.40
2022-10-22T00:38:06.978Z,5.40
2022-10-22T00:40:35.629Z,5.00
2022-10-22T00:43:10.728Z,4.70
2022-10-22T00:45:42.533Z,4.90
2022-10-22T00:48:15.064Z,4.60
2022-10-22T00:50:53.982Z,4.50
2022-10-22T00:53:28.580Z,4.78
2022-10-22T00:55:58.618Z,5.22
2022-10-22T00:58:32.503Z,5.18
2022-10-22T01:01:02.451Z,4.82
2022-10-22T01:03:31.511Z,4.95
2022-10-22T01:06:05.930Z,5.25
2022-10-22T01:08:46.270Z,4.82
2022-10-22T01:11:23.537Z,5.10
2022-10-22T01:14:03.410Z,4.90
2022-10-22T01:16:41.662Z,5.65
2022-10-22T01:19:30.445Z,5.22
2022-10-22T01:22:10.588Z,5.30
2022-10-22T01:25:09.023Z,5.32
2022-10-22T01:27:58.013Z,5.20
2022-10-22T01:30:30.349Z,4.90
2022-10-22T01:33:04.023Z,5.38
2022-10-22T01:35:36.704Z,5.13
2022-10-22T01:38:12.058Z,5.15
2022-10-22T01:43:13.863Z,5.57
2022-10-22T01:45:55.403Z,6.15
2022-10-22T01:48:42.141Z,5.03
2022-10-22T01:51:37.838Z,5.47
2022-10-22T01:54:23.271Z,5.45
2022-10-22T01:57:10.811Z,5.47
2022-10-22T01:59:54.450Z,5.35
2022-10-22T02:02:37.837Z,5.28
2022-10-22T02:05:14.061Z,4.60
2022-10-22T02:07:51.459Z,4.05
2022-10-22T02:10:25.243Z,5.07
2022-10-22T02:12:57.278Z,4.50
2022-10-22T02:15:32.043Z,4.13
2022-10-22T02:18:02.938Z,4.60
2022-10-22T02:20:35.982Z,4.32
2022-10-22T02:23:06.883Z,4.28
2022-10-22T02:25:40.672Z,4.18
2022-10-22T02:28:16.569Z,4.95
2022-10-22T02:30:50.493Z,4.05
2022-10-22T02:33:27.886Z,3.83
2022-10-22T02:36:00.104Z,3.97
2022-10-22T02:38:35.962Z,5.05
2022-10-22T02:41:05.166Z,3.92
2022-10-22T02:43:43.172Z,4.10
2022-10-22T02:46:13.629Z,4.07
2022-10-22T02:48:45.450Z,3.90
2022-10-22T02:51:14.512Z,4.40
2022-10-22T02:53:44.091Z,3.45
2022-10-22T02:56:14.167Z,4.32
2022-10-22T02:58:43.282Z,3.90
2022-10-22T03:01:15.385Z,3.97
2022-10-22T03:03:46.922Z,3.97
2022-10-22T03:06:15.682Z,3.85
2022-10-22T03:08:50.346Z,4.28
2022-10-22T03:11:19.554Z,3.67
2022-10-22T03:13:49.367Z,3.60
2022-10-22T03:16:17.959Z,4.28
2022-10-22T03:18:48.063Z,4.55
2022-10-22T03:21:33.409Z,3.92
2022-10-22T03:24:12.231Z,4.20
2022-10-22T03:26:43.480Z,4.38
2022-10-22T03:29:14.213Z,4.45
2022-10-22T03:31:43.110Z,4.20
2022-10-22T03:34:13.540Z,4.18
2022-10-22T03:36:43.913Z,4.28
2022-10-22T03:39:17.549Z,4.32
2022-10-22T03:41:47.319Z,4.18
2022-10-22T03:44:18.517Z,4.80
2022-10-22T03:46:47.493Z,4.47
2022-10-22T03:49:19.972Z,3.75
2022-10-22T03:51:49.330Z,4.15
2022-10-22T03:54:18.551Z,4.32
2022-10-22T03:56:47.308Z,4.22
2022-10-22T03:59:16.421Z,4.20
2022-10-22T04:01:46.023Z,4.20
2022-10-22T04:04:17.673Z,4.80
2022-10-22T04:06:47.938Z,4.72
2022-10-22T04:09:16.425Z,4.75
2022-10-22T04:11:46.049Z,4.55
2022-10-22T04:14:14.803Z,4.78
2022-10-22T04:16:43.261Z,4.43
2022-10-22T04:19:14.843Z,4.90
2022-10-22T04:21:44.261Z,5.20
2022-10-22T04:24:14.557Z,4.78
2022-10-22T04:26:43.400Z,4.90
2022-10-22T04:29:15.978Z,4.72
2022-10-22T04:31:45.602Z,5.22
2022-10-22T04:34:15.382Z,4.45
2022-10-22T04:36:44.613Z,4.95
2022-10-22T04:39:17.870Z,5.40
2022-10-22T04:41:47.782Z,11.73
2022-10-22T04:44:17.028Z,5.60
2022-10-22T04:46:50.030Z,5.22
2022-10-22T04:49:20.365Z,5.15
2022-10-22T04:51:49.916Z,5.72
2022-10-22T04:54:32.274Z,5.53
2022-10-22T04:57:04.033Z,5.40
2022-10-22T04:59:33.633Z,5.22
2022-10-22T05:02:03.329Z,5.13
2022-10-22T05:04:32.219Z,6.30
2022-10-22T05:07:01.402Z,5.57
2022-10-22T05:09:34.821Z,4.85
2022-10-22T05:12:03.454Z,5.30
2022-10-22T05:14:32.702Z,5.20
2022-10-22T05:17:01.786Z,5.00
2022-10-22T05:19:33.422Z,4.93
2022-10-22T05:22:04.924Z,4.97
2022-10-22T05:24:37.553Z,5.03
2022-10-22T05:27:06.365Z,4.32
2022-10-22T05:29:35.006Z,4.30
2022-10-22T05:32:03.792Z,5.35
2022-10-22T05:34:35.133Z,4.53
2022-10-22T05:37:05.720Z,5.18
2022-10-22T05:39:40.615Z,4.82
2022-10-22T05:42:09.408Z,4.55
2022-10-22T05:44:41.247Z,4.68
2022-10-22T05:47:10.166Z,4.97
2022-10-22T05:49:43.349Z,5.20
2022-10-22T05:52:13.587Z,4.97
2022-10-22T05:54:47.732Z,5.22
2022-10-22T05:57:18.310Z,4.43
2022-10-22T05:59:53.730Z,4.53
2022-10-22T06:02:22.251Z,5.30
2022-10-22T06:04:50.683Z,4.68
2022-10-22T06:07:23.749Z,4.57
2022-10-22T06:10:08.739Z,4.85
2022-10-22T06:12:37.865Z,4.90
2022-10-22T06:15:15.523Z,4.82
2022-10-22T06:17:46.567Z,4.80
2022-10-22T06:20:18.637Z,4.68
2022-10-22T06:22:48.358Z,4.53
2022-10-22T06:25:19.801Z,4.65
2022-10-22T06:27:52.378Z,4.50
2022-10-22T06:30:22.897Z,4.70
2022-10-22T06:32:56.084Z,5.28
2022-10-22T06:35:26.824Z,5.10
2022-10-22T06:37:56.486Z,5.20
2022-10-22T06:40:26.683Z,4.85
2022-10-22T06:42:56.043Z,5.43
2022-10-22T06:45:24.990Z,5.18
2022-10-22T06:47:53.751Z,5.25
2022-10-22T06:50:23.463Z,4.78
2022-10-22T06:52:51.966Z,5.22
2022-10-22T06:55:21.519Z,4.97
2022-10-22T06:57:52.134Z,4.55
2022-10-22T07:00:21.476Z,4.53
2022-10-22T07:02:57.677Z,4.18
2022-10-22T07:05:30.518Z,4.18
2022-10-22T07:07:59.170Z,3.72
2022-10-22T07:10:30.708Z,3.65
2022-10-22T07:13:03.369Z,4.53
2022-10-22T07:15:32.023Z,4.20
2022-10-22T07:18:01.182Z,4.00
2022-10-22T07:20:32.741Z,4.38
2022-10-22T07:23:08.468Z,3.97
2022-10-22T07:25:38.036Z,3.83
2022-10-22T07:28:09.357Z,3.65
2022-10-22T07:30:38.837Z,4.50
2022-10-22T07:33:10.100Z,3.97
2022-10-22T07:35:40.095Z,4.05
2022-10-22T07:38:11.146Z,3.78
2022-10-22T07:40:40.641Z,3.22
2022-10-22T07:43:14.562Z,4.18
2022-10-22T07:45:45.516Z,3.75
2022-10-22T07:48:14.672Z,3.92
2022-10-22T07:53:17.395Z,4.03
2022-10-22T07:55:48.992Z,3.08
2022-10-22T07:58:23.777Z,3.50
2022-10-22T08:00:56.441Z,3.63
2022-10-22T08:03:26.505Z,3.10
2022-10-22T08:05:57.151Z,3.45
2022-10-22T08:08:31.150Z,3.55
2022-10-22T08:11:04.026Z,5.07
2022-10-22T08:13:34.430Z,5.03
2022-10-22T08:16:04.754Z,3.67
2022-10-22T08:18:33.736Z,3.40
2022-10-22T08:21:03.525Z,3.58
2022-10-22T08:23:35.741Z,3.40
2022-10-22T08:26:06.822Z,3.10
2022-10-22T08:28:39.236Z,3.08
2022-10-22T08:31:10.069Z,3.17
2022-10-22T08:33:41.033Z,3.13
2022-10-22T08:36:14.170Z,2.97
2022-10-22T08:38:43.330Z,3.58
2022-10-22T08:41:17.074Z,2.83
2022-10-22T08:44:39.481Z,3.83
2022-10-22T08:47:37.965Z,3.47
2022-10-22T08:50:11.090Z,3.30
2022-10-22T08:52:43.528Z,3.40
2022-10-22T08:55:16.661Z,3.42
2022-10-22T08:58:01.422Z,3.30
2022-10-22T09:00:37.869Z,3.90
2022-10-22T09:03:42.541Z,3.78
2022-10-22T09:06:16.991Z,3.35
2022-10-22T09:08:48.010Z,4.38
2022-10-22T09:11:32.852Z,4.95
2022-10-22T09:14:04.268Z,4.07
2022-10-22T09:16:58.372Z,4.05
2022-10-22T09:19:35.403Z,4.53
2022-10-22T09:22:19.790Z,4.00
2022-10-22T09:24:55.915Z,3.38
2022-10-22T09:27:32.643Z,3.97
2022-10-22T09:30:03.280Z,3.38
2022-10-22T09:32:38.040Z,3.30
2022-10-22T09:35:11.380Z,3.17
2022-10-22T09:37:50.943Z,3.13
2022-10-22T09:40:20.218Z,3.17
2022-10-22T09:42:51.109Z,3.08
2022-10-22T09:45:27.817Z,3.25
2022-10-22T09:48:19.443Z,3.67
2022-10-22T09:50:50.287Z,4.45
2022-10-22T09:53:39.994Z,3.28
2022-10-22T09:56:20.460Z,4.43
2022-10-22T09:58:52.782Z,3.20
2022-10-22T10:01:27.113Z,2.85
2022-10-22T10:04:09.662Z,2.80
2022-10-22T10:06:47.595Z,2.95
2022-10-22T10:09:22.190Z,3.25
2022-10-22T10:12:01.401Z,2.90
2022-10-22T10:14:39.908Z,2.00
2022-10-22T10:17:21.278Z,2.70
2022-10-22T10:20:07.768Z,3.20
2022-10-22T10:22:52.867Z,2.70
2022-10-22T10:25:51.155Z,2.75
2022-10-22T10:28:44.747Z,1.85
2022-10-22T10:31:34.319Z,2.50
2022-10-22T10:34:16.468Z,2.47
2022-10-22T10:37:02.162Z,2.28
2022-10-22T10:42:20.031Z,2.47
2022-10-22T10:45:04.422Z,3.03
2022-10-22T10:48:24.671Z,2.50
2022-10-22T10:51:05.882Z,2.42
2022-10-22T10:53:55.244Z,2.15
2022-10-22T10:56:39.246Z,2.53
2022-10-22T10:59:25.786Z,2.33
2022-10-22T11:02:17.399Z,2.40
2022-10-22T11:05:30.028Z,3.03
2022-10-22T11:08:03.399Z,2.78
2022-10-22T11:10:43.323Z,2.80
2022-10-22T11:13:22.973Z,2.50
2022-10-22T11:16:02.702Z,2.50
2022-10-22T11:18:40.750Z,2.33
2022-10-22T11:21:23.901Z,3.03
2022-10-22T11:24:03.013Z,2.15
2022-10-22T11:26:46.325Z,2.70
2022-10-22T11:29:30.654Z,2.10
2022-10-22T11:32:07.458Z,2.25
2022-10-22T11:35:02.287Z,2.22
2022-10-22T11:37:49.263Z,2.67
2022-10-22T11:40:27.127Z,1.90
2022-10-22T11:43:03.434Z,1.63
2022-10-22T11:45:43.336Z,2.85
2022-10-22T11:48:21.164Z,2.10
2022-10-22T11:50:54.964Z,2.22
2022-10-22T11:53:39.301Z,1.95
2022-10-22T11:56:26.830Z,2.03
2022-10-22T11:58:58.530Z,2.78
2022-10-22T12:01:48.360Z,2.55
2022-10-22T12:04:24.738Z,2.75
2022-10-22T12:07:23.751Z,2.60
2022-10-22T12:10:13.826Z,2.42
2022-10-22T12:12:57.505Z,3.10
2022-10-22T12:15:30.761Z,3.22
2022-10-22T12:18:05.338Z,2.42
2022-10-22T12:20:47.571Z,2.40
2022-10-22T12:23:25.775Z,2.80
2022-10-22T12:28:48.354Z,2.78
2022-10-22T12:36:55.463Z,3.00
2022-10-22T12:39:30.036Z,2.88
2022-10-22T12:42:01.767Z,3.20
2022-10-22T12:44:30.711Z,2.65
2022-10-22T12:47:01.138Z,2.88
2022-10-22T12:49:38.121Z,2.65
2022-10-22T12:52:16.392Z,3.28
2022-10-22T12:54:48.422Z,3.25
2022-10-22T12:57:24.882Z,3.00
2022-10-22T13:00:06.454Z,2.88
2022-10-22T13:02:42.944Z,3.22
2022-10-22T13:05:25.281Z,3.42
2022-10-22T13:08:08.634Z,3.20
2022-10-22T13:10:42.470Z,2.80
2022-10-22T13:13:45.524Z,3.13
2022-10-22T13:16:24.495Z,3.22
2022-10-22T13:18:57.046Z,2.70
2022-10-22T13:21:36.421Z,3.20
2022-10-22T13:24:21.685Z,3.25
2022-10-22T13:26:54.685Z,2.63
2022-10-22T13:29:25.814Z,2.70
2022-10-22T13:31:59.187Z,3.20
2022-10-22T13:34:30.124Z,3.13
2022-10-22T13:37:01.701Z,3.65
2022-10-22T13:39:33.744Z,3.25
2022-10-22T13:42:02.886Z,4.85
2022-10-22T13:44:31.750Z,25.58
2022-10-22T13:47:02.717Z,20.98
2022-10-22T13:49:35.479Z,8.85
2022-10-22T13:52:04.949Z,5.60
2022-10-22T13:54:37.849Z,3.78
2022-10-22T13:57:11.711Z,3.92
2022-10-22T13:59:40.399Z,5.30
2022-10-22T14:02:13.283Z,3.42
2022-10-22T14:04:44.422Z,3.25
2022-10-22T14:07:17.021Z,3.05
2022-10-22T14:09:46.936Z,3.45
2022-10-22T14:12:18.338Z,3.53
2022-10-22T14:14:47.348Z,3.53
2022-10-22T14:17:18.029Z,3.60
2022-10-22T14:19:50.799Z,5.53
2022-10-22T14:22:26.329Z,3.55
2022-10-22T14:24:55.526Z,2.90
2022-10-22T14:27:24.098Z,3.38
2022-10-22T14:29:56.043Z,2.95
2022-10-22T14:32:29.586Z,6.68
2022-10-22T14:35:01.546Z,6.47
2022-10-22T14:40:18.756Z,10.27
2022-10-22T14:42:50.536Z,14.63
2022-10-22T14:45:24.991Z,5.72
2022-10-22T14:47:55.709Z,3.97
2022-10-22T14:50:30.285Z,3.50
2022-10-22T14:52:59.813Z,7.40
2022-10-22T14:55:29.084Z,4.72
2022-10-22T14:57:59.529Z,3.78
2022-10-22T15:00:28.689Z,3.33
2022-10-22T15:03:03.408Z,3.05
2022-10-22T15:05:36.334Z,3.47
2022-10-22T15:08:05.433Z,3.65
2022-10-22T15:10:36.663Z,3.22
2022-10-22T15:13:08.845Z,2.95
2022-10-22T15:15:39.868Z,2.85
2022-10-22T15:18:09.506Z,2.90
2022-10-22T15:20:39.964Z,4.72
2022-10-22T15:23:10.320Z,3.35
2022-10-22T15:25:39.794Z,3.60
2022-10-22T15:28:10.009Z,2.95
2022-10-22T15:30:38.747Z,3.55
2022-10-22T15:33:17.022Z,2.92
2022-10-22T15:35:48.494Z,3.15
2022-10-22T15:38:18.379Z,3.33
2022-10-22T15:40:47.463Z,3.22
2022-10-22T15:43:16.628Z,2.90
2022-10-22T15:45:45.860Z,2.97
2022-10-22T15:48:15.531Z,3.40
2022-10-22T15:50:44.511Z,3.90
2022-10-22T15:53:15.122Z,4.90
2022-10-22T15:55:51.695Z,5.47
2022-10-22T15:58:20.898Z,3.20
2022-10-22T16:00:49.758Z,3.92
2022-10-22T16:03:18.634Z,3.05
2022-10-22T16:05:54.624Z,3.08
2022-10-22T16:08:27.106Z,4.05
2022-10-22T16:10:56.037Z,3.50
2022-10-22T16:13:25.944Z,3.45
2022-10-22T16:15:57.613Z,3.85
2022-10-22T16:18:27.028Z,3.55
2022-10-22T16:20:55.572Z,3.50
2022-10-22T16:23:27.201Z,3.35
2022-10-22T16:25:55.922Z,3.28
2022-10-22T16:28:26.943Z,3.97
2022-10-22T16:30:56.241Z,3.78
2022-10-22T16:33:25.476Z,3.53
2022-10-22T16:35:55.024Z,4.72
2022-10-22T16:38:24.314Z,4.25
2022-10-22T16:40:56.124Z,4.20
2022-10-22T16:43:24.533Z,3.88
2022-10-22T16:45:57.515Z,4.03
2022-10-22T16:48:40.632Z,3.60
2022-10-22T16:51:12.707Z,4.40
2022-10-22T16:53:43.331Z,4.45
2022-10-22T16:56:16.390Z,4.18
2022-10-22T16:58:51.523Z,5.55
2022-10-22T17:01:22.999Z,5.18
2022-10-22T17:03:54.923Z,10.10
2022-10-22T17:06:26.917Z,7.85
2022-10-22T17:08:58.087Z,6.72
2022-10-22T17:11:31.500Z,5.97
2022-10-22T17:14:00.620Z,5.28
2022-10-22T17:16:29.697Z,4.93
2022-10-22T17:18:59.850Z,5.72
2022-10-22T17:21:28.973Z,4.85
2022-10-22T17:23:57.663Z,5.00
2022-10-22T17:26:28.841Z,5.05
2022-10-22T17:28:58.510Z,5.10
2022-10-22T17:31:30.131Z,5.68
2022-10-22T17:33:59.962Z,5.82
2022-10-22T17:36:35.676Z,5.20
2022-10-22T17:39:09.060Z,5.28
2022-10-22T17:41:39.502Z,4.68
2022-10-22T17:44:10.528Z,4.93
2022-10-22T17:46:49.638Z,5.40
2022-10-22T17:49:22.188Z,4.97
2022-10-22T17:51:54.147Z,4.63
2022-10-22T17:54:23.244Z,5.10
2022-10-22T17:56:56.083Z,4.47
2022-10-22T17:59:25.977Z,4.53
2022-10-22T18:01:58.118Z,4.60
2022-10-22T18:04:54.238Z,5.07
2022-10-22T18:07:25.099Z,4.47
2022-10-22T18:09:55.235Z,4.60
2022-10-22T18:12:27.210Z,3.88
2022-10-22T18:15:00.539Z,4.82
2022-10-22T18:17:34.604Z,4.40
2022-10-22T18:20:11.108Z,3.80
2022-10-22T18:22:45.678Z,4.78
2022-10-22T18:25:17.331Z,4.87
2022-10-22T18:27:52.067Z,6.00
2022-10-22T18:30:20.868Z,7.13
2022-10-22T18:33:07.994Z,6.65
2022-10-22T18:35:37.051Z,7.00
2022-10-22T18:38:05.861Z,7.13
2022-10-22T18:40:37.181Z,6.40
2022-10-22T18:43:07.733Z,7.40
2022-10-22T18:45:36.966Z,6.93
2022-10-22T18:48:06.267Z,8.43
2022-10-22T18:50:35.690Z,7.35
2022-10-22T18:53:05.040Z,8.02
2022-10-22T18:55:34.562Z,8.35
2022-10-22T18:58:03.608Z,7.18
2022-10-22T19:00:35.342Z,5.88
2022-10-22T19:03:04.257Z,5.35
2022-10-22T19:05:33.152Z,6.00
2022-10-22T19:08:03.495Z,5.75
2022-10-22T19:10:32.916Z,6.43
2022-10-22T19:13:01.677Z,5.80
2022-10-22T19:15:30.687Z,6.72
2022-10-22T19:18:02.347Z,6.78
2022-10-22T19:20:30.789Z,7.38
2022-10-22T19:23:00.800Z,7.72
2022-10-22T19:25:30.128Z,7.55
2022-10-22T19:27:58.911Z,8.52
2022-10-22T19:30:29.345Z,8.38
2022-10-22T19:32:57.843Z,10.00
2022-10-22T19:35:28.219Z,8.93
2022-10-22T19:37:57.050Z,10.35
2022-10-22T19:40:27.468Z,10.40
2022-10-22T19:42:56.345Z,10.10
2022-10-22T19:45:27.067Z,9.10
2022-10-22T19:47:56.117Z,9.90
2022-10-22T19:50:27.415Z,9.32
2022-10-22T19:52:56.151Z,9.30
2022-10-22T19:55:25.319Z,9.13
2022-10-22T19:57:55.411Z,8.30
2022-10-22T20:00:24.466Z,8.82
2022-10-22T20:02:53.986Z,9.02
2022-10-22T20:05:25.195Z,9.27
2022-10-22T20:07:56.909Z,9.57
2022-10-22T20:10:25.805Z,9.43
2022-10-22T20:12:54.443Z,9.90
2022-10-22T20:15:23.293Z,9.82
2022-10-22T20:17:54.561Z,10.70
2022-10-22T20:20:28.951Z,10.27
2022-10-22T20:23:01.966Z,10.73
2022-10-22T20:25:31.554Z,9.32
2022-10-22T20:28:00.516Z,10.57
2022-10-22T20:30:28.983Z,10.75
2022-10-22T20:33:01.283Z,10.63
2022-10-22T20:35:30.957Z,10.05
2022-10-22T20:38:01.123Z,11.02
2022-10-22T20:40:32.729Z,10.32
2022-10-22T20:43:02.073Z,11.25
2022-10-22T20:45:32.768Z,12.10
2022-10-22T20:48:05.683Z,11.15
2022-10-22T20:50:38.167Z,11.55
2022-10-22T20:53:08.961Z,11.93
2022-10-22T20:55:39.596Z,12.75
2022-10-22T20:58:08.221Z,11.98
2022-10-22T21:00:40.724Z,11.63
2022-10-22T21:03:09.793Z,11.20
2022-10-22T21:05:39.443Z,11.40
2022-10-22T21:08:10.519Z,12.82
2022-10-22T21:10:43.349Z,12.85
2022-10-22T21:13:15.864Z,14.15
2022-10-22T21:15:44.437Z,13.73
2022-10-22T21:18:14.447Z,14.40
2022-10-22T21:20:45.015Z,13.63
2022-10-22T21:23:16.525Z,15.02
2022-10-22T21:25:55.465Z,14.80
2022-10-22T21:28:24.910Z,15.35
2022-10-22T21:30:54.188Z,15.52
2022-10-22T21:33:24.605Z,15.50
2022-10-22T21:35:57.309Z,16.17
2022-10-22T21:38:27.898Z,16.52
2022-10-22T21:40:56.932Z,17.35
2022-10-22T21:43:25.665Z,17.02
2022-10-22T21:46:07.978Z,15.43
2022-10-22T21:48:40.451Z,15.80
2022-10-22T21:51:12.092Z,17.00
2022-10-22T21:53:43.035Z,16.23
2022-10-22T21:56:18.503Z,17.52
2022-10-22T22:01:17.111Z,17.02
2022-10-22T22:03:49.256Z,17.67
2022-10-22T22:06:24.655Z,16.85
2022-10-22T22:08:56.669Z,16.88
2022-10-22T22:11:28.295Z,17.77
2022-10-22T22:13:59.087Z,17.23
2022-10-22T22:16:31.335Z,19.23
2022-10-22T22:21:33.492Z,18.23
2022-10-22T22:24:05.368Z,18.48
2022-10-22T22:26:35.496Z,19.52
2022-10-22T22:29:04.682Z,18.20
2022-10-22T22:31:37.270Z,20.10
2022-10-22T22:34:08.097Z,19.02
2022-10-22T22:36:41.074Z,19.60
2022-10-22T22:39:16.130Z,19.73
2022-10-22T22:41:47.944Z,19.83
2022-10-22T22:44:17.320Z,18.33
2022-10-22T22:46:46.472Z,20.27
2022-10-22T22:49:15.780Z,19.58
2022-10-22T22:51:45.041Z,17.90
2022-10-22T22:54:14.954Z,19.80
2022-10-22T22:56:44.107Z,18.90
2022-10-22T22:59:13.358Z,20.60
2022-10-22T23:01:45.553Z,20.40
2022-10-22T23:04:19.088Z,19.45
2022-10-22T23:06:48.038Z,20.08
2022-10-22T23:09:24.411Z,19.98
2022-10-22T23:11:53.413Z,20.33
2022-10-22T23:14:23.617Z,21.25
2022-10-22T23:17:00.528Z,20.58
2022-10-22T23:19:30.239Z,21.67
2022-10-22T23:22:01.964Z,21.88
2022-10-22T23:24:32.552Z,21.95
2022-10-22T23:27:03.909Z,21.90
2022-10-22T23:29:39.785Z,22.75
2022-10-22T23:32:15.434Z,23.90
2022-10-22T23:34:44.028Z,23.97
2022-10-22T23:37:17.645Z,23.98
2022-10-22T23:39:47.407Z,23.08
2022-10-22T23:42:19.087Z,22.95
2022-10-22T23:44:47.669Z,23.20
2022-10-22T23:47:17.875Z,23.63
2022-10-22T23:49:46.813Z,23.73
2022-10-22T23:52:15.344Z,22.73
2022-10-22T23:54:44.046Z,24.05
2022-10-22T23:57:15.226Z,22.52
2022-10-22T23:59:44.245Z,22.50
